createdAt,value
2023-02-15T00:00:12.845Z,101253.94
2023-02-15T00:02:40.355Z,101247.63
2023-02-15T00:05:08.722Z,101251.72
2023-02-15T00:07:35.610Z,101249.81
2023-02-15T00:10:04.643Z,101249.69
2023-02-15T00:12:31.420Z,101246.94
2023-02-15T00:14:58.531Z,101246.59
2023-02-15T00:17:25.806Z,101234.50
2023-02-15T00:19:52.610Z,101236.91
2023-02-15T00:22:19.627Z,101227.66
2023-02-15T00:24:46.346Z,101231.56
2023-02-15T00:27:14.753Z,101228.16
2023-02-15T00:29:41.706Z,101225.09
2023-02-15T00:32:08.470Z,101217.78
2023-02-15T00:34:35.552Z,101217.44
2023-02-15T00:37:02.343Z,101215.56
2023-02-15T00:39:29.412Z,101213.19
2023-02-15T00:41:56.147Z,101210.78
2023-02-15T00:44:24.303Z,101204.66
2023-02-15T00:46:50.954Z,101202.25
2023-02-15T00:49:17.610Z,101192.91
2023-02-15T00:51:44.630Z,101200.94
2023-02-15T00:54:11.644Z,101188.50
2023-02-15T00:56:38.570Z,101179.81
2023-02-15T00:59:05.312Z,101171.13
2023-02-15T01:01:33.571Z,101165.00
2023-02-15T01:04:00.242Z,101158.03
2023-02-15T01:06:27.043Z,101143.22
2023-02-15T01:08:54.134Z,101141.03
2023-02-15T01:11:23.376Z,101133.53
2023-02-15T01:13:51.841Z,101131.47
2023-02-15T01:16:19.293Z,101120.94
2023-02-15T01:18:48.219Z,101124.66
2023-02-15T01:21:17.241Z,101105.97
2023-02-15T01:23:44.584Z,101108.16
2023-02-15T01:26:11.629Z,101098.09
2023-02-15T01:28:39.087Z,101102.69
2023-02-15T01:31:07.561Z,101101.34
2023-02-15T01:33:35.661Z,101095.41
2023-02-15T01:36:05.200Z,101091.47
2023-02-15T01:38:32.229Z,101092.16
2023-02-15T01:40:59.130Z,101086.06
2023-02-15T01:43:41.201Z,101081.97
2023-02-15T01:46:10.219Z,101078.38
2023-02-15T01:48:44.186Z,101073.44
2023-02-15T01:51:13.968Z,101064.41
2023-02-15T01:53:45.661Z,101060.97
2023-02-15T01:56:17.701Z,101058.63
2023-02-15T01:58:45.282Z,101063.38
2023-02-15T02:01:12.265Z,101054.69
2023-02-15T02:03:48.018Z,101050.44
2023-02-15T02:06:16.509Z,101051.78
2023-02-15T02:08:44.726Z,101040.53
2023-02-15T02:11:12.251Z,101041.94
2023-02-15T02:13:40.346Z,101043.97
2023-02-15T02:16:15.762Z,101042.94
2023-02-15T02:18:55.887Z,101027.75
2023-02-15T02:21:57.119Z,101028.28
2023-02-15T02:25:02.147Z,101017.03
2023-02-15T02:27:38.610Z,101014.84
2023-02-15T02:30:38.227Z,101003.78
2023-02-15T02:33:29.361Z,100992.31
2023-02-15T02:36:07.814Z,100994.16
2023-02-15T02:38:49.257Z,100991.06
2023-02-15T02:41:21.993Z,100991.63
2023-02-15T02:43:55.955Z,100982.84
2023-02-15T02:46:29.205Z,100981.25
2023-02-15T02:48:58.085Z,100976.03
2023-02-15T02:51:25.410Z,100974.94
2023-02-15T02:53:56.108Z,100968.53
2023-02-15T02:56:30.446Z,100967.34
2023-02-15T02:59:03.232Z,100958.13
2023-02-15T03:01:36.427Z,100956.09
2023-02-15T03:04:11.013Z,100962.91
2023-02-15T03:06:42.740Z,100946.28
2023-02-15T03:09:16.985Z,100949.97
2023-02-15T03:11:46.059Z,100942.34
2023-02-15T03:14:16.150Z,100932.69
2023-02-15T03:16:47.452Z,100928.66
2023-02-15T03:19:19.832Z,100927.13
2023-02-15T03:21:49.358Z,100933.59
2023-02-15T03:24:21.088Z,100934.44
2023-02-15T03:26:51.981Z,100929.53
2023-02-15T03:29:22.343Z,100937.66
2023-02-15T03:31:55.643Z,100930.69
2023-02-15T03:34:24.731Z,100930.19
2023-02-15T03:36:57.703Z,100922.00
2023-02-15T03:39:31.117Z,100921.00
2023-02-15T03:42:09.501Z,100914.69
2023-02-15T03:44:47.347Z,100920.13
2023-02-15T03:47:18.846Z,100906.19
2023-02-15T03:49:52.293Z,100907.53
2023-02-15T03:52:21.516Z,100903.72
2023-02-15T03:54:50.429Z,100890.69
2023-02-15T03:57:21.864Z,100868.59
2023-02-15T03:59:48.970Z,100868.41
2023-02-15T04:02:25.224Z,100865.75
2023-02-15T04:04:53.299Z,100857.75
2023-02-15T04:07:20.293Z,100851.78
2023-02-15T04:09:46.980Z,100855.19
2023-02-15T04:12:13.888Z,100857.16
2023-02-15T04:14:40.571Z,100847.97
2023-02-15T04:17:07.814Z,100846.94
2023-02-15T04:19:35.275Z,100846.41
2023-02-15T04:22:03.646Z,100842.47
2023-02-15T04:24:30.391Z,100832.00
2023-02-15T04:26:57.353Z,100835.16
2023-02-15T04:29:25.980Z,100825.97
2023-02-15T04:31:53.754Z,100825.88
2023-02-15T04:34:20.542Z,100818.13
2023-02-15T04:36:47.358Z,100815.00
2023-02-15T04:39:17.690Z,100815.88
2023-02-15T04:41:45.333Z,100814.56
2023-02-15T04:44:12.184Z,100824.19
2023-02-15T04:46:39.186Z,100830.78
2023-02-15T04:49:06.086Z,100833.16
2023-02-15T04:51:33.218Z,100825.03
2023-02-15T04:54:00.076Z,100820.88
2023-02-15T04:56:28.156Z,100817.41
2023-02-15T04:58:54.867Z,100823.25
2023-02-15T05:01:21.844Z,100827.75
2023-02-15T05:03:48.903Z,100826.38
2023-02-15T05:06:15.718Z,100823.38
2023-02-15T05:08:42.466Z,100827.31
2023-02-15T05:11:09.306Z,100830.19
2023-02-15T05:13:37.745Z,100828.47
2023-02-15T05:16:04.937Z,100835.81
2023-02-15T05:18:31.988Z,100820.88
2023-02-15T05:20:59.040Z,100816.16
2023-02-15T05:23:25.879Z,100813.09
2023-02-15T05:25:52.724Z,100806.13
2023-02-15T05:28:19.511Z,100806.97
2023-02-15T05:30:49.307Z,100811.97
2023-02-15T05:33:16.280Z,100809.88
2023-02-15T05:35:43.167Z,100801.63
2023-02-15T05:38:10.214Z,100800.34
2023-02-15T05:40:37.272Z,100794.66
2023-02-15T05:43:04.343Z,100796.19
2023-02-15T05:45:31.142Z,100795.81
2023-02-15T05:47:59.383Z,100800.63
2023-02-15T05:50:26.158Z,100796.59
2023-02-15T05:52:53.407Z,100796.09
2023-02-15T05:55:20.240Z,100799.09
2023-02-15T05:57:47.189Z,100788.19
2023-02-15T06:00:15.486Z,100785.66
2023-02-15T06:02:42.412Z,100784.13
2023-02-15T06:05:10.775Z,100783.28
2023-02-15T06:07:37.614Z,100781.63
2023-02-15T06:10:05.452Z,100796.59
2023-02-15T06:12:32.559Z,100794.41
2023-02-15T06:14:59.406Z,100798.47
2023-02-15T06:17:26.098Z,100799.00
2023-02-15T06:19:52.920Z,100791.34
2023-02-15T06:22:21.250Z,100789.13
2023-02-15T06:24:47.993Z,100783.06
2023-02-15T06:27:14.711Z,100784.63
2023-02-15T06:29:41.777Z,100771.16
2023-02-15T06:32:08.655Z,100768.31
2023-02-15T06:34:35.526Z,100764.19
2023-02-15T06:37:02.668Z,100766.78
2023-02-15T06:39:31.256Z,100767.81
2023-02-15T06:41:58.992Z,100758.63
2023-02-15T06:44:26.251Z,100764.56
2023-02-15T06:46:53.365Z,100759.31
2023-02-15T06:49:20.159Z,100761.47
2023-02-15T06:51:47.205Z,100745.84
2023-02-15T06:54:14.623Z,100744.63
2023-02-15T06:56:43.033Z,100754.69
2023-02-15T06:59:10.031Z,100758.91
2023-02-15T07:01:36.817Z,100783.06
2023-02-15T07:04:03.773Z,100765.53
2023-02-15T07:06:32.532Z,100767.75
2023-02-15T07:08:59.286Z,100760.84
2023-02-15T07:11:27.630Z,100763.56
2023-02-15T07:13:56.117Z,100765.25
2023-02-15T07:16:23.118Z,100765.09
2023-02-15T07:18:49.892Z,100771.19
2023-02-15T07:21:16.654Z,100762.31
2023-02-15T07:23:43.487Z,100756.88
2023-02-15T07:26:10.798Z,100737.38
2023-02-15T07:28:38.150Z,100746.06
2023-02-15T07:31:06.862Z,100743.34
2023-02-15T07:33:35.816Z,100736.34
2023-02-15T07:36:06.599Z,100735.81
2023-02-15T07:38:35.472Z,100741.28
2023-02-15T07:41:03.330Z,100738.69
2023-02-15T07:43:30.932Z,100725.25
2023-02-15T07:46:00.397Z,100725.69
2023-02-15T07:48:28.904Z,100722.72
2023-02-15T07:50:59.580Z,100733.09
2023-02-15T07:53:26.298Z,100718.78
2023-02-15T07:55:53.185Z,100719.25
2023-02-15T07:58:20.400Z,100713.41
2023-02-15T08:00:47.137Z,100709.13
2023-02-15T08:03:14.055Z,100701.97
2023-02-15T08:05:44.246Z,100700.00
2023-02-15T08:08:12.441Z,100695.56
2023-02-15T08:10:39.256Z,100698.16
2023-02-15T08:13:06.015Z,100696.31
2023-02-15T08:15:35.657Z,100710.72
2023-02-15T08:18:02.484Z,100709.69
2023-02-15T08:20:29.378Z,100710.91
2023-02-15T08:22:57.661Z,100696.81
2023-02-15T08:25:24.456Z,100692.97
2023-02-15T08:27:51.809Z,100699.28
2023-02-15T08:30:18.594Z,100711.63
2023-02-15T08:32:45.654Z,100714.66
2023-02-15T08:35:12.780Z,100717.00
2023-02-15T08:37:39.565Z,100709.00
2023-02-15T08:40:09.727Z,100725.81
2023-02-15T08:42:36.505Z,100718.94
2023-02-15T08:45:03.713Z,100718.97
2023-02-15T08:47:30.575Z,100721.78
2023-02-15T08:49:57.772Z,100727.69
2023-02-15T08:52:24.896Z,100731.91
2023-02-15T08:54:51.708Z,100738.44
2023-02-15T08:57:20.204Z,100749.00
2023-02-15T08:59:47.948Z,100741.59
2023-02-15T09:02:14.681Z,100727.97
2023-02-15T09:04:41.814Z,100733.22
2023-02-15T09:07:08.570Z,100740.28
2023-02-15T09:09:35.321Z,100734.97
2023-02-15T09:12:02.350Z,100738.91
2023-02-15T09:14:30.551Z,100729.81
2023-02-15T09:16:57.382Z,100736.78
2023-02-15T09:19:24.674Z,100732.59
2023-02-15T09:21:51.827Z,100722.88
2023-02-15T09:24:19.339Z,100734.59
2023-02-15T09:26:48.159Z,100726.84
2023-02-15T09:29:16.042Z,100725.81
2023-02-15T09:31:46.446Z,100719.50
2023-02-15T09:34:14.811Z,100710.19
2023-02-15T09:36:42.409Z,100707.50
2023-02-15T09:39:11.579Z,100703.91
2023-02-15T09:42:04.489Z,100704.38
2023-02-15T09:44:47.828Z,100704.59
2023-02-15T09:47:35.885Z,100704.38
2023-02-15T09:50:10.452Z,100709.66
2023-02-15T09:52:54.919Z,100715.56
2023-02-15T09:55:44.787Z,100706.72
2023-02-15T09:58:24.999Z,100708.59
2023-02-15T10:01:00.275Z,100698.28
2023-02-15T10:03:48.248Z,100702.06
2023-02-15T10:06:30.031Z,100695.72
2023-02-15T10:09:28.907Z,100691.91
2023-02-15T10:12:15.494Z,100697.53
2023-02-15T10:15:08.839Z,100707.69
2023-02-15T10:17:50.659Z,100714.22
2023-02-15T10:20:29.392Z,100720.03
2023-02-15T10:23:09.628Z,100715.94
2023-02-15T10:25:44.382Z,100708.56
2023-02-15T10:28:18.496Z,100710.44
2023-02-15T10:30:49.040Z,100713.69
2023-02-15T10:33:36.072Z,100706.31
2023-02-15T10:36:14.799Z,100695.94
2023-02-15T10:38:47.039Z,100698.47
2023-02-15T10:41:28.213Z,100690.13
2023-02-15T10:44:15.224Z,100693.81
2023-02-15T10:47:03.023Z,100696.25
2023-02-15T10:49:52.751Z,100686.56
2023-02-15T10:52:35.834Z,100688.13
2023-02-15T10:55:12.166Z,100682.22
2023-02-15T10:57:53.073Z,100684.97
2023-02-15T11:00:29.997Z,100683.69
2023-02-15T11:03:16.095Z,100686.81
2023-02-15T11:05:52.231Z,100676.66
2023-02-15T11:08:23.571Z,100673.66
2023-02-15T11:10:55.844Z,100670.81
2023-02-15T11:13:27.448Z,100667.91
2023-02-15T11:15:58.610Z,100657.78
2023-02-15T11:18:32.391Z,100658.22
2023-02-15T11:21:03.421Z,100658.25
2023-02-15T11:23:36.345Z,100664.16
2023-02-15T11:26:08.030Z,100655.72
2023-02-15T11:28:39.258Z,100659.31
2023-02-15T11:31:16.649Z,100665.41
2023-02-15T11:33:47.616Z,100662.00
2023-02-15T11:36:18.649Z,100664.53
2023-02-15T11:38:50.341Z,100673.19
2023-02-15T11:41:22.094Z,100669.72
2023-02-15T11:43:54.621Z,100682.31
2023-02-15T11:46:21.839Z,100685.25
2023-02-15T11:48:49.766Z,100687.00
2023-02-15T11:51:21.617Z,100686.16
2023-02-15T11:53:52.921Z,100699.53
2023-02-15T11:56:22.764Z,100686.63
2023-02-15T11:58:55.788Z,100690.88
2023-02-15T12:01:30.129Z,100678.44
2023-02-15T12:04:00.593Z,100682.03
2023-02-15T12:06:30.916Z,100682.44
2023-02-15T12:09:06.430Z,100688.56
2023-02-15T12:11:37.031Z,100695.50
2023-02-15T12:14:06.103Z,100684.50
2023-02-15T12:16:41.578Z,100692.94
2023-02-15T12:19:22.467Z,100695.69
2023-02-15T12:21:53.044Z,100691.66
2023-02-15T12:24:24.204Z,100696.09
2023-02-15T12:27:00.711Z,100696.31
2023-02-15T12:29:32.305Z,100698.22
2023-02-15T12:32:00.283Z,100700.78
2023-02-15T12:34:31.866Z,100694.63
2023-02-15T12:37:03.784Z,100706.91
2023-02-15T12:39:32.750Z,100700.53
2023-02-15T12:42:06.214Z,100706.28
2023-02-15T12:44:35.522Z,100698.25
2023-02-15T12:47:04.566Z,100701.38
2023-02-15T12:49:33.258Z,100691.53
2023-02-15T12:52:02.714Z,100688.38
2023-02-15T12:54:34.062Z,100691.28
2023-02-15T12:57:14.005Z,100691.94
2023-02-15T12:59:49.741Z,100698.00
2023-02-15T13:02:23.569Z,100694.00
2023-02-15T13:04:51.392Z,100690.47
2023-02-15T13:07:18.736Z,100694.03
2023-02-15T13:09:48.917Z,100691.72
2023-02-15T13:12:21.574Z,100690.41
2023-02-15T13:14:50.904Z,100694.69
2023-02-15T13:17:19.771Z,100693.38
2023-02-15T13:19:50.814Z,100691.72
2023-02-15T13:22:21.368Z,100685.41
2023-02-15T13:24:56.344Z,100684.13
2023-02-15T13:27:28.905Z,100670.41
2023-02-15T13:30:00.121Z,100679.91
2023-02-15T13:32:31.442Z,100678.22
2023-02-15T13:35:00.526Z,100679.91
2023-02-15T13:37:48.133Z,100676.31
2023-02-15T13:40:23.529Z,100680.09
2023-02-15T13:42:58.064Z,100677.31
2023-02-15T13:45:37.458Z,100674.50
2023-02-15T13:48:18.489Z,100674.50
2023-02-15T13:51:09.309Z,100677.78
2023-02-15T13:53:52.811Z,100677.75
2023-02-15T13:56:29.925Z,100672.94
2023-02-15T13:59:13.998Z,100668.31
2023-02-15T14:01:46.800Z,100663.16
2023-02-15T14:04:35.045Z,100656.28
2023-02-15T14:07:21.311Z,100662.50
2023-02-15T14:09:59.554Z,100659.81
2023-02-15T14:12:38.466Z,100665.59
2023-02-15T14:15:16.057Z,100660.84
2023-02-15T14:17:54.705Z,100654.13
2023-02-15T14:20:30.996Z,100664.78
2023-02-15T14:23:08.702Z,100650.06
2023-02-15T14:25:41.681Z,100654.31
2023-02-15T14:28:15.773Z,100660.78
2023-02-15T14:30:47.234Z,100677.53
2023-02-15T14:33:34.483Z,100680.53
2023-02-15T14:36:02.661Z,100676.53
2023-02-15T14:38:47.834Z,100671.25
2023-02-15T14:41:19.965Z,100674.59
2023-02-15T14:43:56.073Z,100675.25
2023-02-15T14:46:32.176Z,100676.72
2023-02-15T14:49:07.452Z,100672.97
2023-02-15T14:51:58.964Z,100679.25
2023-02-15T14:54:54.652Z,100674.50
2023-02-15T14:57:37.266Z,100669.47
2023-02-15T15:00:46.140Z,100667.16
2023-02-15T15:03:24.124Z,100666.06
2023-02-15T15:05:55.232Z,100658.25
2023-02-15T15:08:33.965Z,100668.31
2023-02-15T15:11:43.996Z,100672.56
2023-02-15T15:14:32.899Z,100666.28
2023-02-15T15:17:00.619Z,100669.59
2023-02-15T15:20:03.856Z,100664.31
2023-02-15T15:22:32.079Z,100668.97
2023-02-15T15:24:59.633Z,100670.47
2023-02-15T15:27:48.086Z,100676.00
2023-02-15T15:30:50.323Z,100672.44
2023-02-15T15:33:59.729Z,100681.44
2023-02-15T15:37:20.149Z,100679.63
2023-02-15T15:40:35.010Z,100681.41
2023-02-15T15:43:32.029Z,100689.81
2023-02-15T15:46:12.839Z,100687.50
2023-02-15T15:48:41.754Z,100689.78
2023-02-15T15:51:18.798Z,100691.50
2023-02-15T15:53:48.626Z,100686.66
2023-02-15T15:56:20.311Z,100687.91
2023-02-15T15:58:53.235Z,100687.06
2023-02-15T16:01:27.571Z,100682.38
2023-02-15T16:03:56.656Z,100687.47
2023-02-15T16:06:35.721Z,100688.66
2023-02-15T16:09:19.107Z,100698.59
2023-02-15T16:11:49.166Z,100696.28
2023-02-15T16:14:27.244Z,100692.03
2023-02-15T16:16:57.393Z,100689.09
2023-02-15T16:19:28.301Z,100690.81
2023-02-15T16:21:58.893Z,100698.75
2023-02-15T16:24:53.160Z,100692.44
2023-02-15T16:27:38.224Z,100694.78
2023-02-15T16:30:25.997Z,100697.94
2023-02-15T16:33:04.103Z,100693.09
2023-02-15T16:35:31.713Z,100698.38
2023-02-15T16:37:58.633Z,100695.44
2023-02-15T16:40:41.982Z,100693.75
2023-02-15T16:43:17.385Z,100689.09
2023-02-15T16:45:46.346Z,100693.38
2023-02-15T16:48:20.173Z,100694.22
2023-02-15T16:50:53.219Z,100692.53
2023-02-15T16:53:24.232Z,100690.88
2023-02-15T16:55:55.087Z,100695.72
2023-02-15T16:58:28.539Z,100674.44
2023-02-15T17:00:59.700Z,100674.66
2023-02-15T17:03:27.419Z,100676.72
2023-02-15T17:05:56.410Z,100679.03
2023-02-15T17:08:32.018Z,100679.63
2023-02-15T17:11:06.709Z,100684.91
2023-02-15T17:13:33.493Z,100685.31
2023-02-15T17:16:28.284Z,100688.88
2023-02-15T17:18:58.679Z,100691.59
2023-02-15T17:21:31.588Z,100688.66
2023-02-15T17:24:01.011Z,100688.19
2023-02-15T17:26:31.526Z,100692.34
2023-02-15T17:29:02.213Z,100691.41
2023-02-15T17:31:33.430Z,100692.41
2023-02-15T17:34:01.780Z,100702.44
2023-02-15T17:36:30.804Z,100699.19
2023-02-15T17:39:05.869Z,100703.31
2023-02-15T17:41:34.197Z,100701.59
2023-02-15T17:44:02.338Z,100702.97
2023-02-15T17:46:33.836Z,100704.88
2023-02-15T17:49:00.908Z,100706.50
2023-02-15T17:51:28.715Z,100702.19
2023-02-15T17:53:56.129Z,100693.94
2023-02-15T17:56:22.918Z,100701.72
2023-02-15T17:58:49.690Z,100705.25
2023-02-15T18:01:21.027Z,100698.38
2023-02-15T18:03:51.779Z,100699.22
2023-02-15T18:06:19.031Z,100705.22
2023-02-15T18:08:45.822Z,100716.47
2023-02-15T18:11:13.903Z,100713.00
2023-02-15T18:13:40.584Z,100714.94
2023-02-15T18:16:14.508Z,100714.84
2023-02-15T18:18:42.321Z,100723.31
2023-02-15T18:21:12.152Z,100725.63
2023-02-15T18:23:39.402Z,100725.13
2023-02-15T18:26:06.873Z,100730.44
2023-02-15T18:28:33.947Z,100725.78
2023-02-15T18:31:01.551Z,100731.72
2023-02-15T18:33:35.895Z,100726.47
2023-02-15T18:36:05.778Z,100741.13
2023-02-15T18:38:34.505Z,100729.94
2023-02-15T18:41:03.801Z,100727.97
2023-02-15T18:43:31.137Z,100735.69
2023-02-15T18:45:58.241Z,100735.50
2023-02-15T18:48:25.038Z,100741.69
2023-02-15T18:50:52.157Z,100733.22
2023-02-15T18:53:21.519Z,100736.34
2023-02-15T18:55:49.789Z,100731.97
2023-02-15T18:58:19.336Z,100731.88
2023-02-15T19:00:46.787Z,100729.88
2023-02-15T19:03:14.591Z,100727.44
2023-02-15T19:05:44.350Z,100717.84
2023-02-15T19:08:18.077Z,100713.72
2023-02-15T19:10:45.476Z,100719.22
2023-02-15T19:13:14.111Z,100715.66
2023-02-15T19:15:42.276Z,100712.47
2023-02-15T19:18:10.916Z,100717.84
2023-02-15T19:20:39.918Z,100718.97
2023-02-15T19:23:15.419Z,100712.94
2023-02-15T19:25:42.859Z,100713.50
2023-02-15T19:28:19.710Z,100701.19
2023-02-15T19:30:46.846Z,100696.41
2023-02-15T19:33:18.819Z,100696.13
2023-02-15T19:35:47.480Z,100693.19
2023-02-15T19:38:18.630Z,100691.78
2023-02-15T19:40:46.644Z,100694.53
2023-02-15T19:43:19.713Z,100694.13
2023-02-15T19:45:47.331Z,100690.72
2023-02-15T19:48:14.299Z,100694.22
2023-02-15T19:50:42.120Z,100689.25
2023-02-15T19:53:20.619Z,100693.00
2023-02-15T19:55:47.673Z,100691.31
2023-02-15T19:58:16.155Z,100690.94
2023-02-15T20:00:42.959Z,100689.63
2023-02-15T20:03:10.083Z,100688.97
2023-02-15T20:05:37.762Z,100693.69
2023-02-15T20:08:06.232Z,100688.59
2023-02-15T20:10:33.067Z,100688.84
2023-02-15T20:13:00.299Z,100682.53
2023-02-15T20:15:29.760Z,100682.34
2023-02-15T20:17:58.253Z,100686.34
2023-02-15T20:20:31.765Z,100689.91
2023-02-15T20:22:59.625Z,100676.06
2023-02-15T20:25:28.724Z,100679.75
2023-02-15T20:27:56.770Z,100681.81
2023-02-15T20:30:26.088Z,100676.25
2023-02-15T20:32:57.301Z,100673.16
2023-02-15T20:35:25.837Z,100683.78
2023-02-15T20:37:55.378Z,100679.53
2023-02-15T20:40:24.754Z,100693.47
2023-02-15T20:42:51.626Z,100698.19
2023-02-15T20:45:21.382Z,100698.94
2023-02-15T20:47:48.870Z,100708.13
2023-02-15T20:50:20.822Z,100714.25
2023-02-15T20:52:49.916Z,100707.09
2023-02-15T20:55:19.218Z,100708.13
2023-02-15T20:57:47.514Z,100711.16
2023-02-15T21:00:17.601Z,100711.72
2023-02-15T21:02:44.895Z,100715.28
2023-02-15T21:05:24.714Z,100712.38
2023-02-15T21:07:53.759Z,100719.88
2023-02-15T21:10:23.123Z,100726.56
2023-02-15T21:12:51.144Z,100728.91
2023-02-15T21:15:31.641Z,100730.44
2023-02-15T21:18:00.532Z,100729.94
2023-02-15T21:20:31.242Z,100733.44
2023-02-15T21:23:00.661Z,100738.50
2023-02-15T21:25:31.817Z,100734.69
2023-02-15T21:27:58.647Z,100737.97
2023-02-15T21:30:26.292Z,100738.63
2023-02-15T21:32:53.655Z,100745.94
2023-02-15T21:35:21.396Z,100743.16
2023-02-15T21:37:51.619Z,100740.78
2023-02-15T21:40:21.259Z,100734.84
2023-02-15T21:42:48.384Z,100723.28
2023-02-15T21:45:16.240Z,100721.41
2023-02-15T21:47:43.738Z,100732.13
2023-02-15T21:50:14.512Z,100731.88
2023-02-15T21:52:41.245Z,100730.84
2023-02-15T21:55:13.904Z,100731.66
2023-02-15T21:57:40.692Z,100733.75
2023-02-15T22:00:14.206Z,100742.94
2023-02-15T22:02:43.735Z,100741.31
2023-02-15T22:05:14.581Z,100741.56
2023-02-15T22:07:41.902Z,100746.00
2023-02-15T22:10:11.710Z,100744.56
2023-02-15T22:12:39.437Z,100735.84
2023-02-15T22:15:07.136Z,100738.56
2023-02-15T22:17:34.139Z,100734.34
2023-02-15T22:20:01.001Z,100733.03
2023-02-15T22:22:27.831Z,100732.75
2023-02-15T22:24:54.826Z,100728.72
2023-02-15T22:27:26.111Z,100725.72
2023-02-15T22:29:53.939Z,100715.09
2023-02-15T22:32:23.004Z,100712.66
2023-02-15T22:34:50.937Z,100715.09
2023-02-15T22:37:18.072Z,100715.38
2023-02-15T22:39:44.901Z,100711.88
2023-02-15T22:42:21.079Z,100719.50
2023-02-15T22:44:49.176Z,100712.34
2023-02-15T22:47:21.158Z,100708.56
2023-02-15T22:49:48.034Z,100702.13
2023-02-15T22:52:15.577Z,100698.16
2023-02-15T22:54:42.623Z,100701.19
2023-02-15T22:57:16.265Z,100694.31
2023-02-15T22:59:43.302Z,100700.06
2023-02-15T23:02:14.451Z,100707.03
2023-02-15T23:04:41.992Z,100696.00
2023-02-15T23:07:14.281Z,100698.44
2023-02-15T23:09:41.456Z,100710.50
2023-02-15T23:12:24.065Z,100709.03
2023-02-15T23:14:51.547Z,100708.56
2023-02-15T23:17:20.468Z,100704.63
2023-02-15T23:19:48.735Z,100698.66
2023-02-15T23:22:17.004Z,100697.41
2023-02-15T23:24:47.643Z,100691.16
2023-02-15T23:27:17.036Z,100689.59
2023-02-15T23:29:43.776Z,100679.72
2023-02-15T23:32:13.666Z,100672.16
2023-02-15T23:34:43.120Z,100673.88
2023-02-15T23:37:13.075Z,100657.22
2023-02-15T23:39:39.915Z,100665.66
2023-02-15T23:42:13.277Z,100657.28
2023-02-15T23:44:41.112Z,100653.50
2023-02-15T23:47:19.772Z,100654.84
2023-02-15T23:49:48.171Z,100655.75
2023-02-15T23:52:14.963Z,100651.97
2023-02-15T23:54:42.070Z,100656.41
2023-02-15T23:57:12.455Z,100652.91
2023-02-15T23:59:43.692Z,100654.13
